Point Vicente — WDB9763 — position and weather

sailwx.info

Track history (hours):
 
Tides and Currents Weather Stations Pressure Air Temp Water Temp Dewpoint Dewpoint Depression Visibility Wind Speed Wind Dir Waves Ship Positions

Point Vicente

Owner: Foss Maritime Company, Seattle, WA. More information available from US FCC via Universal Licensing System and Coast Guard Vessel Documentation Center.

Last reported at 2016-Sep-27 14:32 UTC. Time now 2016-Sep-27 19:00 UTC.
Position N 37°54' W 122°22'.

Length 32 m; draft 4.3 m.

Type: Tug. MMSI: 366982330.

Date/timePositionNaut miles runAvg speedWind from/ knotsBaromVisibWave heightAir tempDewpointWater temp
2016-Sep-27 14:32N 37°54' W 122°22'0 0.0
2016-Sep-27 13:32N 37°54' W 122°22'0 0.0
2016-Sep-27 10:33N 37°54' W 122°22'8 0.8
2016-Sep-27 00:33N 37°48' W 122°18'3 0.8
2016-Sep-26 20:32N 37°49' W 122°22'0 0.0
2016-Sep-26 19:32N 37°49' W 122°22'2 0.6
2016-Sep-26 15:33N 37°47' W 122°21'2 1.1
2016-Sep-26 13:33N 37°45' W 122°20'0 0.0
2016-Sep-26 11:33N 37°45' W 122°20'3 1.1
2016-Sep-26 08:33N 37°48' W 122°22'7 1.1
2016-Sep-26 02:33N 37°54' W 122°22'0 0.0
2016-Sep-26 01:33N 37°54' W 122°22'0 0.0
2016-Sep-26 00:33N 37°54' W 122°22'6 2.0
2016-Sep-25 21:33N 37°49' W 122°20'0 0.0
2016-Sep-25 17:29N 37°49' W 122°20'0 0.0
2016-Sep-25 16:29N 37°49' W 122°20'0 0.0
2016-Sep-25 15:32N 37°49' W 122°20'2 1.7
2016-Sep-25 14:33N 37°49' W 122°22'0 0.0
2016-Sep-25 12:33N 37°49' W 122°22'5 5.1
2016-Sep-25 11:33N 37°54' W 122°22'0 0.4
2016-Sep-25 10:33N 37°54' W 122°22'3 2.6
2016-Sep-25 09:33N 37°55' W 122°25'2 1.1
2016-Sep-25 07:33N 37°54' W 122°22'0 0.0
2016-Sep-25 04:33N 37°54' W 122°22'0 0.0
2016-Sep-25 00:33N 37°54' W 122°22'0 0.0
2016-Sep-24 22:33N 37°54' W 122°22'0 0.0
2016-Sep-24 21:33N 37°54' W 122°22'0 0.0
2016-Sep-24 19:33N 37°54' W 122°22'0 0.0
2016-Sep-24 18:33N 37°54' W 122°22'0 0.0
2016-Sep-24 17:33N 37°54' W 122°22'0 0.0
2016-Sep-24 16:33N 37°54' W 122°22'0 0.0
2016-Sep-24 14:33N 37°54' W 122°22'0 0.0
2016-Sep-24 12:33N 37°54' W 122°22'0 0.0
2016-Sep-24 10:33N 37°54' W 122°22'0 0.0
2016-Sep-24 09:33N 37°54' W 122°22'0 0.0
2016-Sep-24 03:33N 37°54' W 122°22'0 0.0
2016-Sep-24 02:33N 37°54' W 122°22'0 0.0
2016-Sep-24 01:33N 37°54' W 122°22'0 0.0
2016-Sep-24 00:33N 37°54' W 122°22'0 0.0
2016-Sep-23 19:33N 37°54' W 122°22'8 4.0
2016-Sep-23 17:33N 37°46' W 122°21'0 0.0
2016-Sep-23 16:33N 37°46' W 122°21'0 0.0
2016-Sep-23 15:33N 37°46' W 122°21'0 0.1
2016-Sep-23 13:34N 37°46' W 122°21'8 2.1
2016-Sep-23 09:33N 37°54' W 122°22'0 0.0
2016-Sep-23 06:31N 37°54' W 122°22'0 0.0
2016-Sep-23 04:31N 37°54' W 122°22'0 0.0
2016-Sep-23 03:31N 37°54' W 122°22'0 0.0
2016-Sep-23 02:31N 37°54' W 122°22'0 0.0
2016-Sep-23 01:31N 37°54' W 122°22'0 0.0
2016-Sep-23 00:31N 37°54' W 122°22'0 0.0
2016-Sep-22 23:31N 37°54' W 122°22'0 0.0
2016-Sep-22 12:32N 37°54' W 122°22'0 0.0
2016-Sep-22 04:32N 37°54' W 122°22'0 0.0
2016-Sep-22 03:32N 37°54' W 122°22'0 0.0
2016-Sep-22 00:32N 37°54' W 122°22'0 0.0
2016-Sep-21 23:32N 37°54' W 122°22'0 0.0
2016-Sep-21 22:32N 37°54' W 122°22'0 0.0
2016-Sep-21 19:32N 37°54' W 122°22'0 0.0
2016-Sep-21 16:32N 37°54' W 122°22'0 0.0
2016-Sep-21 09:32N 37°54' W 122°22'0 0.0
2016-Sep-21 08:32N 37°54' W 122°22'1 0.3
2016-Sep-21 05:33N 37°55' W 122°22'1 0.4
2016-Sep-21 03:33N 37°54' W 122°22'2 1.8
2016-Sep-21 02:33N 37°53' W 122°24'2 0.2
2016-Sep-20 17:31N 37°54' W 122°22'0 0.0
2016-Sep-20 14:31N 37°54' W 122°22'0 0.0
2016-Sep-20 13:31N 37°54' W 122°22'0 0.0
2016-Sep-20 10:31N 37°54' W 122°22'0 0.0
2016-Sep-20 08:31N 37°54' W 122°22'0 0.0
2016-Sep-20 07:28N 37°54' W 122°22'0 0.0
2016-Sep-20 06:28N 37°54' W 122°22'0 0.0
2016-Sep-20 02:31N 37°54' W 122°22'1 0.2
2016-Sep-19 23:33N 37°55' W 122°22'8 2.0
2016-Sep-19 19:33N 37°48' W 122°18'0 0.0
2016-Sep-19 18:33N 37°48' W 122°18'0 0.0
2016-Sep-19 16:33N 37°48' W 122°18'3 1.7
2016-Sep-19 14:33N 37°49' W 122°22'0 0.0
2016-Sep-19 13:34N 37°49' W 122°22'5 5.1
2016-Sep-19 12:33N 37°54' W 122°22'0 0.0
2016-Sep-19 11:31N 37°54' W 122°22'0 0.0
2016-Sep-19 09:22N 37°54' W 122°22'0 0.0
2016-Sep-19 07:31N 37°54' W 122°22'0 0.0
2016-Sep-19 06:31N 37°54' W 122°22'0 0.0
2016-Sep-19 03:31N 37°54' W 122°22'0 0.0
2016-Sep-19 02:31N 37°54' W 122°22'0 0.0
2016-Sep-19 00:31N 37°54' W 122°22'0 0.0
2016-Sep-18 19:31N 37°54' W 122°22'0 0.0
2016-Sep-18 15:31N 37°54' W 122°22'0 0.0
2016-Sep-18 14:25N 37°54' W 122°22'0 0.0
2016-Sep-18 10:31N 37°54' W 122°22'0 0.0
2016-Sep-18 09:31N 37°54' W 122°22'0 0.0
2016-Sep-18 02:31N 37°54' W 122°22'0 0.0
2016-Sep-18 01:31N 37°54' W 122°22'0 0.1
2016-Sep-18 00:33N 37°54' W 122°22'7 3.4
2016-Sep-17 22:33N 37°48' W 122°20'1 0.5
2016-Sep-17 21:33N 37°48' W 122°19'0 0.0
2016-Sep-17 20:33N 37°48' W 122°19'0 0.0
2016-Sep-17 19:16N 37°48' W 122°19'  
Track history (hours):
 
Tides and Currents Weather Stations Pressure Air Temp Water Temp Dewpoint Dewpoint Depression Visibility Wind Speed Wind Dir Waves Ship Positions

Point Vicente

Owner: Foss Maritime Company, Seattle, WA. More information available from US FCC via Universal Licensing System and Coast Guard Vessel Documentation Center.

Last reported at 2016-Sep-27 14:32 UTC. Time now 2016-Sep-27 19:00 UTC.
Position N 37°54' W 122°22'.

Length 32 m; draft 4.3 m.

Type: Tug. MMSI: 366982330.

Date/timePositionNaut miles runAvg speedWind from/ knotsBaromVisibWave heightAir tempDewpointWater temp
2016-Sep-27 14:32N 37°54' W 122°22'0 0.0
2016-Sep-27 13:32N 37°54' W 122°22'0 0.0
2016-Sep-27 10:33N 37°54' W 122°22'8 0.8
2016-Sep-27 00:33N 37°48' W 122°18'3 0.8
2016-Sep-26 20:32N 37°49' W 122°22'0 0.0
2016-Sep-26 19:32N 37°49' W 122°22'2 0.6
2016-Sep-26 15:33N 37°47' W 122°21'2 1.1
2016-Sep-26 13:33N 37°45' W 122°20'0 0.0
2016-Sep-26 11:33N 37°45' W 122°20'3 1.1
2016-Sep-26 08:33N 37°48' W 122°22'7 1.1
2016-Sep-26 02:33N 37°54' W 122°22'0 0.0
2016-Sep-26 01:33N 37°54' W 122°22'0 0.0
2016-Sep-26 00:33N 37°54' W 122°22'6 2.0
2016-Sep-25 21:33N 37°49' W 122°20'0 0.0
2016-Sep-25 17:29N 37°49' W 122°20'0 0.0
2016-Sep-25 16:29N 37°49' W 122°20'0 0.0
2016-Sep-25 15:32N 37°49' W 122°20'2 1.7
2016-Sep-25 14:33N 37°49' W 122°22'0 0.0
2016-Sep-25 12:33N 37°49' W 122°22'5 5.1
2016-Sep-25 11:33N 37°54' W 122°22'0 0.4
2016-Sep-25 10:33N 37°54' W 122°22'3 2.6
2016-Sep-25 09:33N 37°55' W 122°25'2 1.1
2016-Sep-25 07:33N 37°54' W 122°22'0 0.0
2016-Sep-25 04:33N 37°54' W 122°22'0 0.0
2016-Sep-25 00:33N 37°54' W 122°22'0 0.0
2016-Sep-24 22:33N 37°54' W 122°22'0 0.0
2016-Sep-24 21:33N 37°54' W 122°22'0 0.0
2016-Sep-24 19:33N 37°54' W 122°22'0 0.0
2016-Sep-24 18:33N 37°54' W 122°22'0 0.0
2016-Sep-24 17:33N 37°54' W 122°22'0 0.0
2016-Sep-24 16:33N 37°54' W 122°22'0 0.0
2016-Sep-24 14:33N 37°54' W 122°22'0 0.0
2016-Sep-24 12:33N 37°54' W 122°22'0 0.0
2016-Sep-24 10:33N 37°54' W 122°22'0 0.0
2016-Sep-24 09:33N 37°54' W 122°22'0 0.0
2016-Sep-24 03:33N 37°54' W 122°22'0 0.0
2016-Sep-24 02:33N 37°54' W 122°22'0 0.0
2016-Sep-24 01:33N 37°54' W 122°22'0 0.0
2016-Sep-24 00:33N 37°54' W 122°22'0 0.0
2016-Sep-23 19:33N 37°54' W 122°22'8 4.0
2016-Sep-23 17:33N 37°46' W 122°21'0 0.0
2016-Sep-23 16:33N 37°46' W 122°21'0 0.0
2016-Sep-23 15:33N 37°46' W 122°21'0 0.1
2016-Sep-23 13:34N 37°46' W 122°21'8 2.1
2016-Sep-23 09:33N 37°54' W 122°22'0 0.0
2016-Sep-23 06:31N 37°54' W 122°22'0 0.0
2016-Sep-23 04:31N 37°54' W 122°22'0 0.0
2016-Sep-23 03:31N 37°54' W 122°22'0 0.0
2016-Sep-23 02:31N 37°54' W 122°22'0 0.0
2016-Sep-23 01:31N 37°54' W 122°22'0 0.0
2016-Sep-23 00:31N 37°54' W 122°22'0 0.0
2016-Sep-22 23:31N 37°54' W 122°22'0 0.0
2016-Sep-22 12:32N 37°54' W 122°22'0 0.0
2016-Sep-22 04:32N 37°54' W 122°22'0 0.0
2016-Sep-22 03:32N 37°54' W 122°22'0 0.0
2016-Sep-22 00:32N 37°54' W 122°22'0 0.0
2016-Sep-21 23:32N 37°54' W 122°22'0 0.0
2016-Sep-21 22:32N 37°54' W 122°22'0 0.0
2016-Sep-21 19:32N 37°54' W 122°22'0 0.0
2016-Sep-21 16:32N 37°54' W 122°22'0 0.0
2016-Sep-21 09:32N 37°54' W 122°22'0 0.0
2016-Sep-21 08:32N 37°54' W 122°22'1 0.3
2016-Sep-21 05:33N 37°55' W 122°22'1 0.4
2016-Sep-21 03:33N 37°54' W 122°22'2 1.8
2016-Sep-21 02:33N 37°53' W 122°24'2 0.2
2016-Sep-20 17:31N 37°54' W 122°22'0 0.0
2016-Sep-20 14:31N 37°54' W 122°22'0 0.0
2016-Sep-20 13:31N 37°54' W 122°22'0 0.0
2016-Sep-20 10:31N 37°54' W 122°22'0 0.0
2016-Sep-20 08:31N 37°54' W 122°22'0 0.0
2016-Sep-20 07:28N 37°54' W 122°22'0 0.0
2016-Sep-20 06:28N 37°54' W 122°22'0 0.0
2016-Sep-20 02:31N 37°54' W 122°22'1 0.2
2016-Sep-19 23:33N 37°55' W 122°22'8 2.0
2016-Sep-19 19:33N 37°48' W 122°18'0 0.0
2016-Sep-19 18:33N 37°48' W 122°18'0 0.0
2016-Sep-19 16:33N 37°48' W 122°18'3 1.7
2016-Sep-19 14:33N 37°49' W 122°22'0 0.0
2016-Sep-19 13:34N 37°49' W 122°22'5 5.1
2016-Sep-19 12:33N 37°54' W 122°22'0 0.0
2016-Sep-19 11:31N 37°54' W 122°22'0 0.0
2016-Sep-19 09:22N 37°54' W 122°22'0 0.0
2016-Sep-19 07:31N 37°54' W 122°22'0 0.0
2016-Sep-19 06:31N 37°54' W 122°22'0 0.0
2016-Sep-19 03:31N 37°54' W 122°22'0 0.0
2016-Sep-19 02:31N 37°54' W 122°22'0 0.0
2016-Sep-19 00:31N 37°54' W 122°22'0 0.0
2016-Sep-18 19:31N 37°54' W 122°22'0 0.0
2016-Sep-18 15:31N 37°54' W 122°22'0 0.0
2016-Sep-18 14:25N 37°54' W 122°22'0 0.0
2016-Sep-18 10:31N 37°54' W 122°22'0 0.0
2016-Sep-18 09:31N 37°54' W 122°22'0 0.0
2016-Sep-18 02:31N 37°54' W 122°22'0 0.0
2016-Sep-18 01:31N 37°54' W 122°22'0 0.1
2016-Sep-18 00:33N 37°54' W 122°22'7 3.4
2016-Sep-17 22:33N 37°48' W 122°20'1 0.5
2016-Sep-17 21:33N 37°48' W 122°19'0 0.0
2016-Sep-17 20:33N 37°48' W 122°19'0 0.0
2016-Sep-17 19:16N 37°48' W 122°19'  

Dump ship's entire track history